sensor_id;sensor_type;location;lat;lon;timestamp;pressure;altitude;pressure_sealevel;temperature;humidity
74079;BME280;62437;51.544;-3.276;2022-11-09T00:01:04;99172.59;;;11.05;55.99
74079;BME280;62437;51.544;-3.276;2022-11-09T00:03:29;99171.96;;;10.79;56.55
74079;BME280;62437;51.544;-3.276;2022-11-09T00:05:54;99170.05;;;11.37;56.08
74079;BME280;62437;51.544;-3.276;2022-11-09T00:08:20;99176.99;;;11.13;55.75
74079;BME280;62437;51.544;-3.276;2022-11-09T00:10:46;99179.50;;;11.20;56.43
74079;BME280;62437;51.544;-3.276;2022-11-09T00:13:11;99179.10;;;11.41;55.11
74079;BME280;62437;51.544;-3.276;2022-11-09T00:15:37;99191.29;;;10.69;55.69
74079;BME280;62437;51.544;-3.276;2022-11-09T00:18:02;99199.18;;;10.46;56.31
74079;BME280;62437;51.544;-3.276;2022-11-09T00:20:28;99200.09;;;10.89;56.29
74079;BME280;62437;51.544;-3.276;2022-11-09T00:22:54;99199.10;;;10.76;56.34
74079;BME280;62437;51.544;-3.276;2022-11-09T00:25:19;99199.99;;;10.65;57.16
74079;BME280;62437;51.544;-3.276;2022-11-09T00:27:45;99192.99;;;11.14;55.87
74079;BME280;62437;51.544;-3.276;2022-11-09T00:30:11;99190.39;;;10.81;56.12
74079;BME280;62437;51.544;-3.276;2022-11-09T00:32:36;99190.21;;;10.78;56.39
74079;BME280;62437;51.544;-3.276;2022-11-09T00:35:03;99190.97;;;10.56;55.82
74079;BME280;62437;51.544;-3.276;2022-11-09T00:37:28;99188.22;;;10.50;55.68
74079;BME280;62437;51.544;-3.276;2022-11-09T00:39:53;99191.01;;;11.00;55.16
74079;BME280;62437;51.544;-3.276;2022-11-09T00:42:19;99199.25;;;10.46;56.88
74079;BME280;62437;51.544;-3.276;2022-11-09T00:44:44;99197.00;;;10.68;55.70
74079;BME280;62437;51.544;-3.276;2022-11-09T00:47:10;99197.46;;;11.07;56.28
74079;BME280;62437;51.544;-3.276;2022-11-09T00:49:36;99198.25;;;10.73;56.80
74079;BME280;62437;51.544;-3.276;2022-11-09T00:52:01;99192.96;;;10.50;57.40
74079;BME280;62437;51.544;-3.276;2022-11-09T00:54:27;99199.17;;;10.13;57.99
74079;BME280;62437;51.544;-3.276;2022-11-09T00:56:53;99199.64;;;10.72;56.90
74079;BME280;62437;51.544;-3.276;2022-11-09T00:59:18;99204.03;;;10.60;57.95
74079;BME280;62437;51.544;-3.276;2022-11-09T01:01:44;99206.23;;;10.09;58.72
74079;BME280;62437;51.544;-3.276;2022-11-09T01:04:10;99211.99;;;10.53;57.92
74079;BME280;62437;51.544;-3.276;2022-11-09T01:06:36;99216.38;;;10.79;57.21
74079;BME280;62437;51.544;-3.276;2022-11-09T01:09:01;99226.73;;;10.35;58.70
74079;BME280;62437;51.544;-3.276;2022-11-09T01:11:27;99225.95;;;10.14;58.90
74079;BME280;62437;51.544;-3.276;2022-11-09T01:13:52;99229.76;;;10.45;58.13
74079;BME280;62437;51.544;-3.276;2022-11-09T01:16:20;99233.26;;;10.17;58.75
74079;BME280;62437;51.544;-3.276;2022-11-09T01:18:43;99223.27;;;9.65;60.34
74079;BME280;62437;51.544;-3.276;2022-11-09T01:21:10;99227.20;;;10.21;59.50
74079;BME280;62437;51.544;-3.276;2022-11-09T01:23:35;99230.32;;;9.75;60.15
74079;BME280;62437;51.544;-3.276;2022-11-09T01:26:01;99233.65;;;10.10;59.60
74079;BME280;62437;51.544;-3.276;2022-11-09T01:28:25;99238.44;;;10.36;58.65
74079;BME280;62437;51.544;-3.276;2022-11-09T01:30:50;99243.38;;;10.30;58.43
74079;BME280;62437;51.544;-3.276;2022-11-09T01:33:16;99243.49;;;9.66;59.59
74079;BME280;62437;51.544;-3.276;2022-11-09T01:35:42;99246.71;;;10.12;58.64
74079;BME280;62437;51.544;-3.276;2022-11-09T01:38:08;99242.23;;;10.44;57.79
74079;BME280;62437;51.544;-3.276;2022-11-09T01:40:35;99243.23;;;10.57;57.47
74079;BME280;62437;51.544;-3.276;2022-11-09T01:43:05;99251.86;;;10.54;57.08
74079;BME280;62437;51.544;-3.276;2022-11-09T01:45:26;99255.33;;;11.06;55.64
74079;BME280;62437;51.544;-3.276;2022-11-09T01:47:56;99267.94;;;10.33;57.51
74079;BME280;62437;51.544;-3.276;2022-11-09T01:50:17;99272.88;;;11.06;56.18
74079;BME280;62437;51.544;-3.276;2022-11-09T01:52:43;99279.46;;;11.28;55.95
74079;BME280;62437;51.544;-3.276;2022-11-09T01:55:10;99292.88;;;10.82;57.39
74079;BME280;62437;51.544;-3.276;2022-11-09T01:57:35;99287.67;;;10.69;57.53
74079;BME280;62437;51.544;-3.276;2022-11-09T02:00:00;99277.76;;;10.47;58.17
74079;BME280;62437;51.544;-3.276;2022-11-09T02:02:23;99281.11;;;10.42;58.50
74079;BME280;62437;51.544;-3.276;2022-11-09T02:04:52;99278.19;;;10.73;58.35
74079;BME280;62437;51.544;-3.276;2022-11-09T02:07:15;99273.12;;;10.07;58.54
74079;BME280;62437;51.544;-3.276;2022-11-09T02:09:45;99290.02;;;10.44;58.12
74079;BME280;62437;51.544;-3.276;2022-11-09T02:12:06;99293.55;;;10.99;57.27
74079;BME280;62437;51.544;-3.276;2022-11-09T02:14:32;99293.30;;;10.91;56.76
74079;BME280;62437;51.544;-3.276;2022-11-09T02:16:58;99299.26;;;10.85;57.21
74079;BME280;62437;51.544;-3.276;2022-11-09T02:19:23;99299.97;;;11.10;57.56
74079;BME280;62437;51.544;-3.276;2022-11-09T02:21:49;99310.26;;;11.28;57.04
74079;BME280;62437;51.544;-3.276;2022-11-09T02:24:14;99311.21;;;10.95;57.00
74079;BME280;62437;51.544;-3.276;2022-11-09T02:26:42;99315.71;;;10.87;57.85
74079;BME280;62437;51.544;-3.276;2022-11-09T02:29:07;99312.76;;;10.98;57.44
74079;BME280;62437;51.544;-3.276;2022-11-09T02:31:34;99307.14;;;11.10;56.98
74079;BME280;62437;51.544;-3.276;2022-11-09T02:34:02;99313.67;;;10.14;59.65
74079;BME280;62437;51.544;-3.276;2022-11-09T02:36:22;99312.32;;;10.79;58.28
74079;BME280;62437;51.544;-3.276;2022-11-09T02:38:47;99307.38;;;10.37;59.24
74079;BME280;62437;51.544;-3.276;2022-11-09T02:41:13;99310.44;;;10.82;57.25
74079;BME280;62437;51.544;-3.276;2022-11-09T02:43:38;99309.68;;;10.53;57.50
74079;BME280;62437;51.544;-3.276;2022-11-09T02:46:04;99315.10;;;11.14;57.10
74079;BME280;62437;51.544;-3.276;2022-11-09T02:48:29;99309.15;;;10.80;57.03
74079;BME280;62437;51.544;-3.276;2022-11-09T02:50:55;99308.91;;;10.93;57.28
74079;BME280;62437;51.544;-3.276;2022-11-09T02:53:21;99309.22;;;10.64;57.61
74079;BME280;62437;51.544;-3.276;2022-11-09T02:55:46;99306.35;;;10.77;58.06
74079;BME280;62437;51.544;-3.276;2022-11-09T02:58:12;99303.70;;;10.59;58.10
74079;BME280;62437;51.544;-3.276;2022-11-09T03:00:38;99307.24;;;10.83;57.88
74079;BME280;62437;51.544;-3.276;2022-11-09T03:03:04;99306.30;;;11.08;56.65
74079;BME280;62437;51.544;-3.276;2022-11-09T03:05:29;99312.28;;;10.84;56.48
74079;BME280;62437;51.544;-3.276;2022-11-09T03:07:55;99313.79;;;11.00;57.01
74079;BME280;62437;51.544;-3.276;2022-11-09T03:10:20;99307.67;;;11.44;56.01
74079;BME280;62437;51.544;-3.276;2022-11-09T03:12:46;99306.30;;;10.69;57.21
74079;BME280;62437;51.544;-3.276;2022-11-09T03:15:11;99306.68;;;10.82;57.32
74079;BME280;62437;51.544;-3.276;2022-11-09T03:17:37;99303.89;;;11.20;56.41
74079;BME280;62437;51.544;-3.276;2022-11-09T03:20:03;99301.67;;;11.26;56.51
74079;BME280;62437;51.544;-3.276;2022-11-09T03:22:29;99300.59;;;11.02;56.34
74079;BME280;62437;51.544;-3.276;2022-11-09T03:24:54;99298.95;;;11.01;56.83
74079;BME280;62437;51.544;-3.276;2022-11-09T03:27:19;99303.97;;;11.13;56.21
74079;BME280;62437;51.544;-3.276;2022-11-09T03:29:45;99303.54;;;10.92;55.98
74079;BME280;62437;51.544;-3.276;2022-11-09T03:32:11;99302.07;;;11.61;55.76
74079;BME280;62437;51.544;-3.276;2022-11-09T03:34:36;99301.62;;;11.30;55.68
74079;BME280;62437;51.544;-3.276;2022-11-09T03:37:02;99306.73;;;11.36;55.64
74079;BME280;62437;51.544;-3.276;2022-11-09T03:39:27;99310.21;;;11.34;55.80
74079;BME280;62437;51.544;-3.276;2022-11-09T03:41:53;99315.40;;;11.49;55.09
74079;BME280;62437;51.544;-3.276;2022-11-09T03:44:18;99318.17;;;11.05;55.98
74079;BME280;62437;51.544;-3.276;2022-11-09T03:46:44;99321.28;;;10.83;56.73
74079;BME280;62437;51.544;-3.276;2022-11-09T03:49:10;99319.67;;;11.35;56.20
74079;BME280;62437;51.544;-3.276;2022-11-09T03:51:36;99325.63;;;11.38;55.72
74079;BME280;62437;51.544;-3.276;2022-11-09T03:54:01;99329.90;;;11.39;56.93
74079;BME280;62437;51.544;-3.276;2022-11-09T03:56:27;99330.48;;;11.37;55.04
74079;BME280;62437;51.544;-3.276;2022-11-09T03:58:53;99334.47;;;11.32;55.71
74079;BME280;62437;51.544;-3.276;2022-11-09T04:01:18;99334.20;;;11.44;55.48
74079;BME280;62437;51.544;-3.276;2022-11-09T04:03:44;99331.52;;;11.14;55.88
74079;BME280;62437;51.544;-3.276;2022-11-09T04:06:10;99335.14;;;11.25;56.33
74079;BME280;62437;51.544;-3.276;2022-11-09T04:08:35;99336.01;;;11.58;55.71
74079;BME280;62437;51.544;-3.276;2022-11-09T04:11:00;99337.63;;;10.47;57.81
74079;BME280;62437;51.544;-3.276;2022-11-09T04:13:26;99343.05;;;10.39;58.17
74079;BME280;62437;51.544;-3.276;2022-11-09T04:15:51;99345.65;;;10.59;58.04
74079;BME280;62437;51.544;-3.276;2022-11-09T04:18:17;99349.62;;;11.18;56.64
74079;BME280;62437;51.544;-3.276;2022-11-09T04:20:43;99357.11;;;11.09;56.45
74079;BME280;62437;51.544;-3.276;2022-11-09T04:23:10;99366.87;;;11.18;56.09
74079;BME280;62437;51.544;-3.276;2022-11-09T04:25:36;99368.16;;;11.19;56.13
74079;BME280;62437;51.544;-3.276;2022-11-09T04:28:01;99370.30;;;11.49;55.79
74079;BME280;62437;51.544;-3.276;2022-11-09T04:30:27;99370.78;;;11.05;55.94
74079;BME280;62437;51.544;-3.276;2022-11-09T04:32:51;99372.62;;;10.85;56.73
74079;BME280;62437;51.544;-3.276;2022-11-09T04:35:16;99379.49;;;11.10;56.36
74079;BME280;62437;51.544;-3.276;2022-11-09T04:37:42;99382.59;;;10.75;56.25
74079;BME280;62437;51.544;-3.276;2022-11-09T04:40:09;99386.37;;;11.13;56.14
74079;BME280;62437;51.544;-3.276;2022-11-09T04:42:33;99385.84;;;10.81;57.68
74079;BME280;62437;51.544;-3.276;2022-11-09T04:44:59;99388.02;;;10.09;58.86
74079;BME280;62437;51.544;-3.276;2022-11-09T04:47:25;99387.71;;;10.42;58.49
74079;BME280;62437;51.544;-3.276;2022-11-09T04:49:50;99391.03;;;10.88;57.01
74079;BME280;62437;51.544;-3.276;2022-11-09T04:52:16;99395.05;;;10.66;56.50
74079;BME280;62437;51.544;-3.276;2022-11-09T04:54:41;99399.02;;;10.67;58.07
74079;BME280;62437;51.544;-3.276;2022-11-09T04:57:07;99405.56;;;10.35;57.74
74079;BME280;62437;51.544;-3.276;2022-11-09T04:59:33;99409.09;;;11.26;56.17
74079;BME280;62437;51.544;-3.276;2022-11-09T05:01:58;99415.62;;;10.87;57.45
74079;BME280;62437;51.544;-3.276;2022-11-09T05:04:24;99432.03;;;10.35;58.01
74079;BME280;62437;51.544;-3.276;2022-11-09T05:06:50;99428.65;;;10.33;58.87
74079;BME280;62437;51.544;-3.276;2022-11-09T05:09:15;99455.66;;;10.68;57.95
74079;BME280;62437;51.544;-3.276;2022-11-09T05:11:41;99489.35;;;10.67;57.09
74079;BME280;62437;51.544;-3.276;2022-11-09T05:14:07;99481.34;;;10.61;61.18
74079;BME280;62437;51.544;-3.276;2022-11-09T05:16:32;99469.41;;;10.35;58.75
74079;BME280;62437;51.544;-3.276;2022-11-09T05:18:58;99458.30;;;10.32;59.00
74079;BME280;62437;51.544;-3.276;2022-11-09T05:21:23;99457.83;;;10.14;59.43
74079;BME280;62437;51.544;-3.276;2022-11-09T05:23:49;99456.94;;;10.29;58.76
74079;BME280;62437;51.544;-3.276;2022-11-09T05:26:15;99451.58;;;10.57;58.83
74079;BME280;62437;51.544;-3.276;2022-11-09T05:28:41;99455.49;;;10.10;59.27
74079;BME280;62437;51.544;-3.276;2022-11-09T05:31:06;99453.92;;;10.25;59.34
74079;BME280;62437;51.544;-3.276;2022-11-09T05:33:32;99453.77;;;10.04;59.32
74079;BME280;62437;51.544;-3.276;2022-11-09T05:35:58;99459.42;;;10.20;59.07
74079;BME280;62437;51.544;-3.276;2022-11-09T05:38:24;99462.27;;;10.46;58.43
74079;BME280;62437;51.544;-3.276;2022-11-09T05:40:49;99458.08;;;10.59;57.43
74079;BME280;62437;51.544;-3.276;2022-11-09T05:43:15;99459.45;;;10.83;57.33
74079;BME280;62437;51.544;-3.276;2022-11-09T05:45:41;99461.14;;;10.73;56.54
74079;BME280;62437;51.544;-3.276;2022-11-09T05:48:06;99462.92;;;10.96;55.91
74079;BME280;62437;51.544;-3.276;2022-11-09T05:50:31;99461.66;;;10.88;56.73
74079;BME280;62437;51.544;-3.276;2022-11-09T05:52:57;99461.46;;;10.92;56.78
74079;BME280;62437;51.544;-3.276;2022-11-09T05:55:23;99462.48;;;11.35;55.41
74079;BME280;62437;51.544;-3.276;2022-11-09T05:57:48;99470.70;;;11.25;55.30
74079;BME280;62437;51.544;-3.276;2022-11-09T06:00:15;99472.94;;;11.26;55.89
74079;BME280;62437;51.544;-3.276;2022-11-09T06:02:40;99471.97;;;11.19;55.16
74079;BME280;62437;51.544;-3.276;2022-11-09T06:05:06;99483.72;;;11.43;55.27
74079;BME280;62437;51.544;-3.276;2022-11-09T06:07:31;99487.18;;;10.69;56.95
74079;BME280;62437;51.544;-3.276;2022-11-09T06:09:57;99482.83;;;11.07;56.14
74079;BME280;62437;51.544;-3.276;2022-11-09T06:12:22;99495.06;;;11.32;55.53
74079;BME280;62437;51.544;-3.276;2022-11-09T06:14:48;99492.56;;;11.39;55.79
74079;BME280;62437;51.544;-3.276;2022-11-09T06:17:14;99492.01;;;11.14;55.99
74079;BME280;62437;51.544;-3.276;2022-11-09T06:19:39;99490.38;;;10.81;57.35
74079;BME280;62437;51.544;-3.276;2022-11-09T06:22:05;99507.27;;;11.20;55.89
74079;BME280;62437;51.544;-3.276;2022-11-09T06:24:31;99512.16;;;11.08;56.35
74079;BME280;62437;51.544;-3.276;2022-11-09T06:26:56;99514.81;;;11.07;55.73
74079;BME280;62437;51.544;-3.276;2022-11-09T06:29:22;99511.89;;;10.90;56.35
74079;BME280;62437;51.544;-3.276;2022-11-09T06:31:48;99517.31;;;10.91;56.01
74079;BME280;62437;51.544;-3.276;2022-11-09T06:34:13;99520.99;;;11.25;55.80
74079;BME280;62437;51.544;-3.276;2022-11-09T06:36:39;99534.09;;;11.44;55.31
74079;BME280;62437;51.544;-3.276;2022-11-09T06:39:05;99524.16;;;11.45;55.35
74079;BME280;62437;51.544;-3.276;2022-11-09T06:41:30;99521.73;;;11.64;55.00
74079;BME280;62437;51.544;-3.276;2022-11-09T06:43:56;99545.51;;;10.69;57.34
74079;BME280;62437;51.544;-3.276;2022-11-09T06:46:22;99539.46;;;11.19;56.75
74079;BME280;62437;51.544;-3.276;2022-11-09T06:48:47;99547.06;;;10.89;56.84
74079;BME280;62437;51.544;-3.276;2022-11-09T06:51:13;99556.05;;;10.35;58.89
74079;BME280;62437;51.544;-3.276;2022-11-09T06:53:39;99544.01;;;11.09;56.63
74079;BME280;62437;51.544;-3.276;2022-11-09T06:56:05;99548.80;;;11.03;57.14
74079;BME280;62437;51.544;-3.276;2022-11-09T06:58:31;99561.90;;;10.46;57.64
74079;BME280;62437;51.544;-3.276;2022-11-09T07:00:56;99573.33;;;10.46;58.58
74079;BME280;62437;51.544;-3.276;2022-11-09T07:03:21;99573.23;;;10.23;58.73
74079;BME280;62437;51.544;-3.276;2022-11-09T07:05:48;99577.33;;;10.26;59.14
74079;BME280;62437;51.544;-3.276;2022-11-09T07:08:13;99576.08;;;10.01;60.03
74079;BME280;62437;51.544;-3.276;2022-11-09T07:10:38;99582.23;;;10.13;59.54
74079;BME280;62437;51.544;-3.276;2022-11-09T07:13:04;99590.18;;;10.55;58.19
74079;BME280;62437;51.544;-3.276;2022-11-09T07:15:29;99602.76;;;10.95;56.98
74079;BME280;62437;51.544;-3.276;2022-11-09T07:17:56;99602.77;;;10.77;56.97
74079;BME280;62437;51.544;-3.276;2022-11-09T07:20:21;99606.26;;;11.20;56.14
74079;BME280;62437;51.544;-3.276;2022-11-09T07:22:48;99612.86;;;11.16;55.92
74079;BME280;62437;51.544;-3.276;2022-11-09T07:25:12;99614.76;;;11.20;56.38
74079;BME280;62437;51.544;-3.276;2022-11-09T07:27:37;99618.51;;;11.45;55.78
74079;BME280;62437;51.544;-3.276;2022-11-09T07:30:04;99622.13;;;11.49;55.34
74079;BME280;62437;51.544;-3.276;2022-11-09T07:32:32;99633.30;;;11.22;55.38
74079;BME280;62437;51.544;-3.276;2022-11-09T07:34:54;99640.37;;;11.34;55.39
74079;BME280;62437;51.544;-3.276;2022-11-09T07:37:20;99645.70;;;11.07;55.62
74079;BME280;62437;51.544;-3.276;2022-11-09T07:39:45;99649.42;;;10.99;55.50
74079;BME280;62437;51.544;-3.276;2022-11-09T07:42:11;99660.17;;;11.16;55.19
74079;BME280;62437;51.544;-3.276;2022-11-09T07:44:37;99666.53;;;11.37;55.37
74079;BME280;62437;51.544;-3.276;2022-11-09T07:47:02;99668.11;;;10.69;57.07
74079;BME280;62437;51.544;-3.276;2022-11-09T07:49:28;99671.96;;;11.05;56.42
74079;BME280;62437;51.544;-3.276;2022-11-09T07:51:54;99674.96;;;11.03;56.24
74079;BME280;62437;51.544;-3.276;2022-11-09T07:54:19;99683.60;;;10.42;56.95
74079;BME280;62437;51.544;-3.276;2022-11-09T07:56:45;99692.61;;;10.82;55.92
74079;BME280;62437;51.544;-3.276;2022-11-09T07:59:11;99695.64;;;10.76;56.55
74079;BME280;62437;51.544;-3.276;2022-11-09T08:01:36;99700.68;;;11.18;55.75
74079;BME280;62437;51.544;-3.276;2022-11-09T08:04:02;99720.31;;;11.36;56.15
74079;BME280;62437;51.544;-3.276;2022-11-09T08:06:28;99728.62;;;10.80;57.08
74079;BME280;62437;51.544;-3.276;2022-11-09T08:08:54;99727.86;;;10.03;60.19
74079;BME280;62437;51.544;-3.276;2022-11-09T08:11:19;99739.54;;;9.89;60.44
74079;BME280;62437;51.544;-3.276;2022-11-09T08:13:45;99736.23;;;10.43;58.91
74079;BME280;62437;51.544;-3.276;2022-11-09T08:16:10;99735.47;;;10.56;58.26
74079;BME280;62437;51.544;-3.276;2022-11-09T08:18:36;99742.29;;;10.49;57.24
74079;BME280;62437;51.544;-3.276;2022-11-09T08:21:01;99741.47;;;10.50;57.58
74079;BME280;62437;51.544;-3.276;2022-11-09T08:23:27;99752.59;;;10.58;57.07
74079;BME280;62437;51.544;-3.276;2022-11-09T08:25:52;99754.94;;;10.81;56.56
74079;BME280;62437;51.544;-3.276;2022-11-09T08:28:18;99757.79;;;11.18;55.90
74079;BME280;62437;51.544;-3.276;2022-11-09T08:30:44;99763.99;;;11.12;56.55
74079;BME280;62437;51.544;-3.276;2022-11-09T08:33:10;99783.38;;;10.33;58.63
74079;BME280;62437;51.544;-3.276;2022-11-09T08:35:35;99786.99;;;10.22;58.60
74079;BME280;62437;51.544;-3.276;2022-11-09T08:38:03;99787.36;;;10.67;57.33
74079;BME280;62437;51.544;-3.276;2022-11-09T08:40:27;99793.61;;;10.45;58.64
74079;BME280;62437;51.544;-3.276;2022-11-09T08:42:52;99789.21;;;10.77;57.83
74079;BME280;62437;51.544;-3.276;2022-11-09T08:45:19;99795.70;;;10.26;58.16
74079;BME280;62437;51.544;-3.276;2022-11-09T08:47:45;99796.88;;;11.15;56.35
74079;BME280;62437;51.544;-3.276;2022-11-09T08:50:11;99801.17;;;10.70;56.31
74079;BME280;62437;51.544;-3.276;2022-11-09T08:52:36;99809.73;;;10.87;56.41
74079;BME280;62437;51.544;-3.276;2022-11-09T08:55:01;99814.08;;;11.14;55.77
74079;BME280;62437;51.544;-3.276;2022-11-09T08:57:27;99816.77;;;11.13;56.24
74079;BME280;62437;51.544;-3.276;2022-11-09T08:59:52;99814.09;;;10.87;56.70
74079;BME280;62437;51.544;-3.276;2022-11-09T09:02:18;99816.29;;;11.16;56.67
74079;BME280;62437;51.544;-3.276;2022-11-09T09:04:43;99821.50;;;10.89;57.08
74079;BME280;62437;51.544;-3.276;2022-11-09T09:07:09;99832.46;;;10.80;57.21
74079;BME280;62437;51.544;-3.276;2022-11-09T09:09:35;99831.82;;;11.37;56.09
74079;BME280;62437;51.544;-3.276;2022-11-09T09:12:00;99837.28;;;11.59;54.93
74079;BME280;62437;51.544;-3.276;2022-11-09T09:14:26;99840.96;;;11.74;54.90
74079;BME280;62437;51.544;-3.276;2022-11-09T09:16:52;99849.77;;;11.18;55.10
74079;BME280;62437;51.544;-3.276;2022-11-09T09:19:17;99852.78;;;11.16;55.41
74079;BME280;62437;51.544;-3.276;2022-11-09T09:21:43;99856.40;;;11.35;55.08
74079;BME280;62437;51.544;-3.276;2022-11-09T09:24:08;99864.00;;;11.34;55.25
74079;BME280;62437;51.544;-3.276;2022-11-09T09:26:34;99868.33;;;11.55;54.64
74079;BME280;62437;51.544;-3.276;2022-11-09T09:29:00;99875.34;;;11.60;54.92
74079;BME280;62437;51.544;-3.276;2022-11-09T09:31:26;99890.12;;;10.79;56.74
74079;BME280;62437;51.544;-3.276;2022-11-09T09:33:51;99892.39;;;10.66;56.99
74079;BME280;62437;51.544;-3.276;2022-11-09T09:36:18;99905.33;;;10.82;57.14
74079;BME280;62437;51.544;-3.276;2022-11-09T09:38:42;99909.78;;;10.57;57.64
74079;BME280;62437;51.544;-3.276;2022-11-09T09:41:14;99911.18;;;10.58;58.44
74079;BME280;62437;51.544;-3.276;2022-11-09T09:43:36;99909.84;;;10.81;58.23
74079;BME280;62437;51.544;-3.276;2022-11-09T09:46:01;99918.00;;;10.26;59.52
74079;BME280;62437;51.544;-3.276;2022-11-09T09:48:31;99919.02;;;10.61;58.20
74079;BME280;62437;51.544;-3.276;2022-11-09T09:50:53;99919.72;;;11.01;57.88
74079;BME280;62437;51.544;-3.276;2022-11-09T09:53:22;99917.93;;;11.42;57.40
74079;BME280;62437;51.544;-3.276;2022-11-09T09:55:45;99918.56;;;10.88;58.26
74079;BME280;62437;51.544;-3.276;2022-11-09T09:58:11;99918.68;;;11.18;57.99
74079;BME280;62437;51.544;-3.276;2022-11-09T10:00:35;99919.86;;;11.33;56.54
74079;BME280;62437;51.544;-3.276;2022-11-09T10:02:58;99918.50;;;11.37;56.07
74079;BME280;62437;51.544;-3.276;2022-11-09T10:05:36;99922.07;;;12.01;55.46
74079;BME280;62437;51.544;-3.276;2022-11-09T10:07:57;99928.43;;;11.85;55.69
74079;BME280;62437;51.544;-3.276;2022-11-09T10:10:25;99935.11;;;11.68;55.57
74079;BME280;62437;51.544;-3.276;2022-11-09T10:12:51;99937.37;;;11.88;55.33
74079;BME280;62437;51.544;-3.276;2022-11-09T10:15:13;99940.36;;;12.31;54.46
74079;BME280;62437;51.544;-3.276;2022-11-09T10:17:38;99936.47;;;12.48;54.35
74079;BME280;62437;51.544;-3.276;2022-11-09T10:20:06;99942.50;;;12.44;53.92
74079;BME280;62437;51.544;-3.276;2022-11-09T10:22:28;99951.46;;;12.52;54.29
74079;BME280;62437;51.544;-3.276;2022-11-09T10:24:52;99959.58;;;12.12;54.78
74079;BME280;62437;51.544;-3.276;2022-11-09T10:27:24;99963.71;;;12.08;55.44
74079;BME280;62437;51.544;-3.276;2022-11-09T10:29:42;99959.76;;;12.09;56.14
74079;BME280;62437;51.544;-3.276;2022-11-09T10:32:11;99954.20;;;11.94;56.13
74079;BME280;62437;51.544;-3.276;2022-11-09T10:34:32;99959.67;;;11.87;57.19
74079;BME280;62437;51.544;-3.276;2022-11-09T10:37:00;99994.48;;;11.74;56.94
74079;BME280;62437;51.544;-3.276;2022-11-09T10:39:22;99991.79;;;11.28;58.24
74079;BME280;62437;51.544;-3.276;2022-11-09T10:41:45;99995.53;;;11.33;58.23
74079;BME280;62437;51.544;-3.276;2022-11-09T10:44:13;100005.21;;;11.06;58.40
74079;BME280;62437;51.544;-3.276;2022-11-09T10:51:33;100016.79;;;11.79;56.48
74079;BME280;62437;51.544;-3.276;2022-11-09T10:56:19;100027.53;;;11.92;56.30
74079;BME280;62437;51.544;-3.276;2022-11-09T10:58:47;100037.74;;;12.45;55.81
74079;BME280;62437;51.544;-3.276;2022-11-09T11:01:12;100034.56;;;12.42;55.77
74079;BME280;62437;51.544;-3.276;2022-11-09T11:03:36;100040.58;;;12.28;55.77
74079;BME280;62437;51.544;-3.276;2022-11-09T11:06:03;100044.39;;;12.34;55.77
74079;BME280;62437;51.544;-3.276;2022-11-09T11:08:31;100040.14;;;12.28;55.25
74079;BME280;62437;51.544;-3.276;2022-11-09T11:13:21;100033.81;;;12.63;55.11
74079;BME280;62437;51.544;-3.276;2022-11-09T11:15:43;100051.28;;;12.61;54.86
74079;BME280;62437;51.544;-3.276;2022-11-09T11:18:17;100048.45;;;12.62;54.56
74079;BME280;62437;51.544;-3.276;2022-11-09T11:20:36;100054.58;;;12.18;55.58
74079;BME280;62437;51.544;-3.276;2022-11-09T11:23:11;100046.10;;;11.44;57.93
74079;BME280;62437;51.544;-3.276;2022-11-09T11:25:25;100052.26;;;11.70;58.05
74079;BME280;62437;51.544;-3.276;2022-11-09T11:27:54;100053.92;;;12.28;56.41
74079;BME280;62437;51.544;-3.276;2022-11-09T11:30:27;100054.28;;;12.10;56.48
74079;BME280;62437;51.544;-3.276;2022-11-09T11:32:42;100060.43;;;12.34;56.87
74079;BME280;62437;51.544;-3.276;2022-11-09T11:35:13;100059.01;;;12.49;55.65
74079;BME280;62437;51.544;-3.276;2022-11-09T11:37:44;100053.04;;;12.45;56.38
74079;BME280;62437;51.544;-3.276;2022-11-09T11:40:02;100052.07;;;12.48;55.44
74079;BME280;62437;51.544;-3.276;2022-11-09T11:42:35;100054.76;;;12.55;55.28
74079;BME280;62437;51.544;-3.276;2022-11-09T11:45:02;100052.91;;;12.17;55.42
74079;BME280;62437;51.544;-3.276;2022-11-09T11:47:21;100054.56;;;12.91;54.73
74079;BME280;62437;51.544;-3.276;2022-11-09T11:49:55;100061.52;;;12.52;54.46
74079;BME280;62437;51.544;-3.276;2022-11-09T11:52:14;100069.06;;;12.43;55.81
74079;BME280;62437;51.544;-3.276;2022-11-09T11:54:40;100073.36;;;12.06;55.78
74079;BME280;62437;51.544;-3.276;2022-11-09T11:57:05;100084.68;;;11.74;57.52
74079;BME280;62437;51.544;-3.276;2022-11-09T11:59:37;100090.98;;;11.75;57.91
74079;BME280;62437;51.544;-3.276;2022-11-09T12:02:03;100086.34;;;12.07;56.78
74079;BME280;62437;51.544;-3.276;2022-11-09T12:04:27;100093.24;;;11.51;58.11
74079;BME280;62437;51.544;-3.276;2022-11-09T12:06:50;100088.54;;;11.54;57.40
74079;BME280;62437;51.544;-3.276;2022-11-09T12:09:16;100092.14;;;12.03;57.54
74079;BME280;62437;51.544;-3.276;2022-11-09T12:11:44;100093.14;;;12.09;58.02
74079;BME280;62437;51.544;-3.276;2022-11-09T12:14:03;100097.79;;;11.78;57.41
74079;BME280;62437;51.544;-3.276;2022-11-09T12:16:26;100092.67;;;12.01;57.40
74079;BME280;62437;51.544;-3.276;2022-11-09T12:18:57;100091.58;;;10.76;61.11
74079;BME280;62437;51.544;-3.276;2022-11-09T12:21:16;100095.91;;;11.82;58.95
74079;BME280;62437;51.544;-3.276;2022-11-09T12:23:52;100095.40;;;11.67;58.33
74079;BME280;62437;51.544;-3.276;2022-11-09T12:26:14;100088.76;;;11.62;59.02
74079;BME280;62437;51.544;-3.276;2022-11-09T12:28:46;100085.85;;;11.96;57.96
74079;BME280;62437;51.544;-3.276;2022-11-09T12:31:17;100091.18;;;11.65;58.98
74079;BME280;62437;51.544;-3.276;2022-11-09T12:33:27;100083.67;;;11.43;59.67
74079;BME280;62437;51.544;-3.276;2022-11-09T12:35:52;100089.21;;;11.07;62.40
74079;BME280;62437;51.544;-3.276;2022-11-09T12:38:17;100089.54;;;11.40;60.09
74079;BME280;62437;51.544;-3.276;2022-11-09T12:40:43;100108.20;;;11.61;59.18
74079;BME280;62437;51.544;-3.276;2022-11-09T12:43:12;100107.35;;;12.09;59.04
74079;BME280;62437;51.544;-3.276;2022-11-09T12:45:33;100109.73;;;11.33;60.36
74079;BME280;62437;51.544;-3.276;2022-11-09T12:47:56;100114.44;;;11.47;60.43